Storm Events Database

Event Details

Event Hail
Magnitude 1.00 in.
State ALABAMA
County/Area ST. CLAIR
WFO BMX
Report Source Law Enforcement
NCDC Data Source CSV
Begin Date 2011-03-28 00:53:00.0 CST-6
Begin Location 2SW MOODY
Begin Lat/Lon 33.57/-86.52
End Date 2011-03-28 00:53:00.0 CST-6
Deaths Direct/Indirect 0/0 (fatality details below, when available...)
Injuries Direct/Indirect 0/0
Property Damage 0.00K
Crop Damage 0.00K
Episode Narrative A stalled boundary sagged southward into North Central Alabama on Saturday, March 26, and became a focus for convection ahead of an approaching storm system. Through the day, as the air mass south of the boundary became increasingly unstable, thunderstorms developed across much of the area. This activity continued into the overnight hours. With the approach of a surface low and cold front, activity reintensified early Sunday morning, March 27, and continued through the pre-dawn hours on Monday as the cold front slowly moved through the area.
Event Narrative


     ‚Äč



All events for this episode:

Location County/Zone St. Date Time T.Z. Type Mag Dth Inj PrD CrD
Totals: 0 0 1.736M 0.00K
LIVINGSTON SUMTER CO. AL 03/26/2011 11:50 CST-6 Hail 0.75 in. 0 0 0.00K 0.00K
GREENSBORO HALE CO. AL 03/26/2011 12:20 CST-6 Hail 0.88 in. 0 0 0.00K 0.00K
ROSEMARY HALE CO. AL 03/26/2011 12:20 CST-6 Hail 0.88 in. 0 0 0.00K 0.00K
GREENSBORO HALE CO. AL 03/26/2011 12:24 CST-6 Hail 1.00 in. 0 0 0.00K 0.00K
FOLSOM PERRY CO. AL 03/26/2011 12:34 CST-6 Hail 1.50 in. 0 0 0.00K 0.00K
CLANTON GRAGG ARPT CHILTON CO. AL 03/26/2011 12:53 CST-6 Hail 1.25 in. 0 0 0.00K 0.00K
FALAKTO CHILTON CO. AL 03/26/2011 12:53 CST-6 Hail 1.50 in. 0 0 0.00K 0.00K
MARION PERRY CO. AL 03/26/2011 12:54 CST-6 Thunderstorm Wind 50 kts. EG 0 0 2.00K 0.00K
CLANTON GRAGG ARPT CHILTON CO. AL 03/26/2011 12:55 CST-6 Hail 1.25 in. 0 0 0.00K 0.00K
CLANTON GRAGG ARPT CHILTON CO. AL 03/26/2011 12:55 CST-6 Hail 1.75 in. 0 0 0.00K 0.00K
SALTER COOSA CO. AL 03/26/2011 13:17 CST-6 Hail 1.75 in. 0 0 0.00K 0.00K
ROCKFORD COOSA CO. AL 03/26/2011 13:30 CST-6 Hail 1.75 in. 0 0 0.00K 0.00K
ALEXANDER CITY TALLAPOOSA CO. AL 03/26/2011 13:40 CST-6 Hail 1.00 in. 0 0 0.00K 0.00K
HACKNEYVILLE TALLAPOOSA CO. AL 03/26/2011 13:50 CST-6 Hail 1.00 in. 0 0 0.00K 0.00K
SESSIONS TALLAPOOSA CO. AL 03/26/2011 13:55 CST-6 Hail 1.25 in. 0 0 0.00K 0.00K
SESSIONS TALLAPOOSA CO. AL 03/26/2011 13:55 CST-6 Hail 3.00 in. 0 0 0.00K 0.00K
HAYNES AUTAUGA CO. AL 03/26/2011 13:57 CST-6 Thunderstorm Wind 87 kts. EG 0 0 55.00K 0.00K
SUMMERFIELD DALLAS CO. AL 03/26/2011 14:00 CST-6 Hail 1.00 in. 0 0 0.00K 0.00K
VERBENA CHILTON CO. AL 03/26/2011 14:00 CST-6 Heavy Rain 0 0 30.00K 0.00K
BURNSVILLE DALLAS CO. AL 03/26/2011 14:03 CST-6 Hail 1.75 in. 0 0 0.00K 0.00K
JACKSONS GAP TALLAPOOSA CO. AL 03/26/2011 14:07 CST-6 Hail 2.00 in. 0 0 0.00K 0.00K
GRIMES TUSCALOOSA CO. AL 03/26/2011 14:16 CST-6 Hail 0.88 in. 0 0 0.00K 0.00K
PINE LEVEL AUTAUGA CO. AL 03/26/2011 14:17 CST-6 Hail 1.00 in. 0 0 0.00K 0.00K
COBB CITY CALHOUN CO. AL 03/26/2011 14:22 CST-6 Hail 0.88 in. 0 0 0.00K 0.00K
PINE LEVEL AUTAUGA CO. AL 03/26/2011 14:22 CST-6 Thunderstorm Wind 50 kts. EG 0 0 2.00K 0.00K
READS MILL CALHOUN CO. AL 03/26/2011 14:22 CST-6 Hail 1.00 in. 0 0 0.00K 0.00K
MOOREFIELD CHAMBERS CO. AL 03/26/2011 14:40 CST-6 Hail 1.00 in. 0 0 0.00K 0.00K
PRATTVILLE AUTAUGA CO. AL 03/26/2011 14:45 CST-6 Thunderstorm Wind 55 kts. EG 0 0 8.00K 0.00K
PIEDMONT CALHOUN CO. AL 03/26/2011 14:49 CST-6 Hail 0.75 in. 0 0 0.00K 0.00K
MILLBROOK ELMORE CO. AL 03/26/2011 14:50 CST-6 Hail 0.75 in. 0 0 0.00K 0.00K
MILLBROOK ELMORE CO. AL 03/26/2011 14:53 CST-6 Hail 1.00 in. 0 0 0.00K 0.00K
LANETT MUNI ARPT CHAMBERS CO. AL 03/26/2011 14:54 CST-6 Hail 1.75 in. 0 0 0.00K 0.00K
LANGDALE CHAMBERS CO. AL 03/26/2011 15:00 CST-6 Hail 1.00 in. 0 0 0.00K 0.00K
ALDRICH SHELBY CO. AL 03/26/2011 15:10 CST-6 Tornado EF1 0 0 18.00K 0.00K
CALERA SHELBY CO. AL 03/26/2011 15:14 CST-6 Hail 0.88 in. 0 0 0.00K 0.00K
DARGIN SHELBY CO. AL 03/26/2011 15:15 CST-6 Hail 1.00 in. 0 0 0.00K 0.00K
CALERA SHELBY CO. AL 03/26/2011 15:20 CST-6 Hail 1.00 in. 0 0 0.00K 0.00K
LA PLACE MACON CO. AL 03/26/2011 15:26 CST-6 Hail 1.75 in. 0 0 0.00K 0.00K
SHELBY SPGS SHELBY CO. AL 03/26/2011 15:30 CST-6 Thunderstorm Wind 60 kts. EG 0 0 2.00K 0.00K
GAINO BARBOUR CO. AL 03/26/2011 15:58 CST-6 Thunderstorm Wind 55 kts. EG 0 0 3.00K 0.00K
HURTSBORO RUSSELL CO. AL 03/26/2011 16:02 CST-6 Hail 1.00 in. 0 0 0.00K 0.00K
EUFAULA BARBOUR CO. AL 03/26/2011 16:25 CST-6 Hail 2.00 in. 0 0 0.00K 0.00K
GUERRYTON BULLOCK CO. AL 03/26/2011 16:42 CST-6 Hail 0.88 in. 0 0 0.00K 0.00K
BLOUNTSVILLE BLOUNT CO. AL 03/26/2011 16:48 CST-6 Hail 0.88 in. 0 0 0.00K 0.00K
SNEAD BLOUNT CO. AL 03/26/2011 17:02 CST-6 Thunderstorm Wind 52 kts. EG 0 0 2.00K 0.00K
ROCKLEDGE ETOWAH CO. AL 03/26/2011 17:30 CST-6 Hail 1.00 in. 0 0 0.00K 0.00K
DETROIT LAMAR CO. AL 03/26/2011 17:35 CST-6 Hail 1.00 in. 0 0 0.00K 0.00K
NOCCALULA FALLS ETOWAH CO. AL 03/26/2011 17:40 CST-6 Hail 1.00 in. 0 0 0.00K 0.00K
PULLTIGHT MARION CO. AL 03/26/2011 18:12 CST-6 Hail 1.00 in. 0 0 0.00K 0.00K
POPE CHEROKEE CO. AL 03/26/2011 18:16 CST-6 Hail 1.25 in. 0 0 0.00K 0.00K
KANSAS WALKER CO. AL 03/26/2011 18:33 CST-6 Hail 1.00 in. 0 0 0.00K 0.00K
ELDRIDGE WALKER CO. AL 03/26/2011 18:35 CST-6 Hail 1.00 in. 0 0 0.00K 0.00K
SARAGOSSA WALKER CO. AL 03/26/2011 18:52 CST-6 Hail 1.75 in. 0 0 0.00K 0.00K
JASPER WALKER CO. AL 03/26/2011 19:02 CST-6 Hail 1.50 in. 0 0 750.00K 0.00K
WIGINTON MARION CO. AL 03/26/2011 19:30 CST-6 Hail 1.75 in. 0 0 0.00K 0.00K
DRUMMOND WALKER CO. AL 03/26/2011 19:38 CST-6 Thunderstorm Wind 50 kts. EG 0 0 2.00K 0.00K
GODDARD MARION CO. AL 03/26/2011 19:48 CST-6 Hail 1.75 in. 0 0 0.00K 0.00K
HALEYVILLE WINSTON CO. AL 03/26/2011 19:53 CST-6 Hail 1.75 in. 0 0 100.00K 0.00K
ADDISON WINSTON CO. AL 03/26/2011 19:55 CST-6 Hail 1.00 in. 0 0 0.00K 0.00K
SONOMA ETOWAH CO. AL 03/26/2011 19:57 CST-6 Hail 1.75 in. 0 0 0.00K 0.00K
CENTER PT JEFFERSON CO. AL 03/26/2011 20:10 CST-6 Hail 0.75 in. 0 0 0.00K 0.00K
SHOTTSVILLE MARION CO. AL 03/26/2011 20:12 CST-6 Hail 1.75 in. 0 0 0.00K 0.00K
TRUSSVILLE JEFFERSON CO. AL 03/26/2011 20:13 CST-6 Hail 1.00 in. 0 0 0.00K 0.00K
HAMILTON ARPT MARION CO. AL 03/26/2011 20:22 CST-6 Hail 1.00 in. 0 0 0.00K 0.00K
MARIGOLD WALKER CO. AL 03/26/2011 21:18 CST-6 Hail 0.88 in. 0 0 0.00K 0.00K
JASPER WALKER CO ARP WALKER CO. AL 03/26/2011 21:22 CST-6 Hail 2.00 in. 0 0 750.00K 0.00K
OVERTON JEFFERSON CO. AL 03/26/2011 21:29 CST-6 Hail 0.88 in. 0 0 0.00K 0.00K
(ANB)ANNISTON CALHOU CALHOUN CO. AL 03/26/2011 21:30 CST-6 Thunderstorm Wind 50 kts. EG 0 0 2.00K 0.00K
VERNON LAMAR CO. AL 03/26/2011 21:43 CST-6 Hail 1.00 in. 0 0 0.00K 0.00K
CALCIS SHELBY CO. AL 03/26/2011 21:55 CST-6 Hail 1.00 in. 0 0 0.00K 0.00K
MICAVILLE CLEBURNE CO. AL 03/26/2011 22:05 CST-6 Hail 1.00 in. 0 0 0.00K 0.00K
GATE CITY JEFFERSON CO. AL 03/26/2011 22:15 CST-6 Hail 0.75 in. 0 0 0.00K 0.00K
NEW LEXINGTON TUSCALOOSA CO. AL 03/26/2011 22:33 CST-6 Hail 0.75 in. 0 0 0.00K 0.00K
CORINTH RANDOLPH CO. AL 03/27/2011 00:05 CST-6 Hail 0.75 in. 0 0 0.00K 0.00K
CORINTH RANDOLPH CO. AL 03/27/2011 00:05 CST-6 Lightning 0 0 10.00K 0.00K
KNOXVILLE GREENE CO. AL 03/27/2011 05:48 CST-6 Hail 0.88 in. 0 0 0.00K 0.00K
CENTERVILLE BIBB CO. AL 03/27/2011 06:37 CST-6 Hail 0.75 in. 0 0 0.00K 0.00K
SCOTROCK SHELBY CO. AL 03/27/2011 07:10 CST-6 Hail 0.75 in. 0 0 0.00K 0.00K
LIVINGSTON SUMTER CO. AL 03/27/2011 08:15 CST-6 Hail 0.75 in. 0 0 0.00K 0.00K
FALAKTO CHILTON CO. AL 03/27/2011 09:06 CST-6 Hail 1.75 in. 0 0 0.00K 0.00K
VERBENA CHILTON CO. AL 03/27/2011 09:15 CST-6 Hail 1.00 in. 0 0 0.00K 0.00K
LOFLIN RUSSELL CO. AL 03/27/2011 11:40 CST-6 Hail 1.75 in. 0 0 0.00K 0.00K
EUFAULA BARBOUR CO. AL 03/27/2011 12:35 CST-6 Hail 1.50 in. 0 0 0.00K 0.00K
TALLASSEE ELMORE CO. AL 03/27/2011 21:19 CST-6 Hail 1.00 in. 0 0 0.00K 0.00K
NOTASULGA MACON CO. AL 03/27/2011 21:35 CST-6 Hail 1.00 in. 0 0 0.00K 0.00K
CRAWFORD RUSSELL CO. AL 03/27/2011 22:20 CST-6 Hail 1.25 in. 0 0 0.00K 0.00K
FLOURNOYS RUSSELL CO. AL 03/27/2011 22:27 CST-6 Hail 0.75 in. 0 0 0.00K 0.00K
FT MITCHELL RUSSELL CO. AL 03/27/2011 22:30 CST-6 Hail 1.50 in. 0 0 0.00K 0.00K
BARNESVILLE MARION CO. AL 03/27/2011 23:20 CST-6 Hail 1.00 in. 0 0 0.00K 0.00K
HOLT JCT TUSCALOOSA CO. AL 03/27/2011 23:50 CST-6 Hail 0.75 in. 0 0 0.00K 0.00K
ABERNANT TUSCALOOSA CO. AL 03/28/2011 00:10 CST-6 Hail 1.00 in. 0 0 0.00K 0.00K
SPAULDING JEFFERSON CO. AL 03/28/2011 00:27 CST-6 Hail 1.00 in. 0 0 0.00K 0.00K
BLUFF PARK JEFFERSON CO. AL 03/28/2011 00:32 CST-6 Hail 0.88 in. 0 0 0.00K 0.00K
SILURIA SHELBY CO. AL 03/28/2011 00:49 CST-6 Hail 0.88 in. 0 0 0.00K 0.00K
MOODY ST. CLAIR CO. AL 03/28/2011 00:53 CST-6 Hail 1.00 in. 0 0 0.00K 0.00K
MIDDLETON CALHOUN CO. AL 03/28/2011 01:26 CST-6 Hail 1.00 in. 0 0 0.00K 0.00K
JACKSONVILLE CALHOUN CO. AL 03/28/2011 01:38 CST-6 Hail 1.00 in. 0 0 0.00K 0.00K
JACKSONVILLE CALHOUN CO. AL 03/28/2011 01:38 CST-6 Hail 1.75 in. 0 0 0.50K 0.00K
JACKSONVILLE CALHOUN CO. AL 03/28/2011 02:10 CST-6 Hail 0.88 in. 0 0 0.00K 0.00K
Totals: 0 0 1.736M 0.00K